Time;durP1;ratioP1;P1;durP2;ratioP2;P2;SDS_P1;SDS_P2;PMS_P1;PMS_P2;Temp;Humidity;BMP_temperature;BMP_pressure;BME280_temperature;BME280_humidity;BME280_pressure;Samples;Min_cycle;Max_cycle;Signal;HPM_P1;HPM_P2
2022/08/24 00:00:56;;;;;;;3.65;3.10;;;;;;;;;;5006300;28;20247;-57
2022/08/24 00:03:23;;;;;;;4.00;3.10;;;;;;;;;;5006135;28;20237;-56
2022/08/24 00:05:49;;;;;;;3.22;2.67;;;;;;;;;;4998786;28;20382;-57
2022/08/24 00:08:16;;;;;;;5.15;2.92;;;;;;;;;;4998987;28;20708;-56
2022/08/24 00:10:43;;;;;;;2.70;2.50;;;;;;;;;;5000330;28;20241;-57
2022/08/24 00:13:09;;;;;;;5.18;2.70;;;;;;;;;;5006080;28;20225;-57
2022/08/24 00:15:37;;;;;;;3.72;2.83;;;;;;;;;;4998176;28;20229;-58
2022/08/24 00:18:03;;;;;;;3.45;3.08;;;;;;;;;;4999531;28;20233;-58
2022/08/24 00:20:30;;;;;;;6.05;3.63;;;;;;;;;;4998780;28;20253;-57
2022/08/24 00:22:56;;;;;;;3.70;2.90;;;;;;;;;;5000677;28;20727;-57
2022/08/24 00:25:23;;;;;;;3.40;3.10;;;;;;;;;;4997344;28;20241;-57
2022/08/24 00:27:49;;;;;;;4.97;2.88;;;;;;;;;;4997527;28;20236;-57
2022/08/24 00:30:17;;;;;;;2.83;2.63;;;;;;;;;;4998992;28;20241;-57
2022/08/24 00:32:46;;;;;;;3.63;2.95;;;;;;;;;;4998526;28;21010;-57
2022/08/24 00:35:13;;;;;;;3.63;3.33;;;;;;;;;;4999716;28;20271;-58
2022/08/24 00:37:40;;;;;;;4.95;3.38;;;;;;;;;;4999035;28;20239;-58
2022/08/24 00:40:09;;;;;;;6.38;3.35;;;;;;;;;;5000265;28;20248;-56
2022/08/24 00:42:35;;;;;;;3.67;3.08;;;;;;;;;;4998389;28;20265;-59
2022/08/24 00:45:01;;;;;;;3.50;3.17;;;;;;;;;;4998567;28;21288;-57
2022/08/24 00:47:31;;;;;;;3.63;3.22;;;;;;;;;;5000011;28;20229;-56
2022/08/24 00:50:00;;;;;;;7.60;3.63;;;;;;;;;;4986368;28;20248;-58
2022/08/24 00:52:28;;;;;;;4.82;3.35;;;;;;;;;;4996633;28;20723;-56
2022/08/24 00:54:56;;;;;;;7.03;3.60;;;;;;;;;;4992292;28;20237;-57
2022/08/24 00:57:27;;;;;;;4.47;3.53;;;;;;;;;;5002429;28;20655;-57
2022/08/24 00:59:55;;;;;;;4.28;3.63;;;;;;;;;;4999310;28;20233;-57
2022/08/24 01:02:23;;;;;;;3.55;3.17;;;;;;;;;;4998444;28;20292;-55
2022/08/24 01:04:52;;;;;;;3.97;3.58;;;;;;;;;;5000136;28;20237;-56
2022/08/24 01:07:21;;;;;;;5.03;3.97;;;;;;;;;;4998000;28;20230;-57
2022/08/24 01:09:48;;;;;;;6.13;3.50;;;;;;;;;;4998091;28;20241;-56
2022/08/24 01:12:15;;;;;;;3.88;3.05;;;;;;;;;;5003564;28;20233;-56
2022/08/24 01:14:42;;;;;;;6.47;3.85;;;;;;;;;;5004831;28;20237;-57
2022/08/24 01:19:54;;;;;;;9.32;3.78;;;;;;;;;;4995768;28;20774;-56
2022/08/24 01:22:28;;;;;;;3.83;3.53;;;;;;;;;;5000702;28;20245;-55
2022/08/24 01:24:56;;;;;;;3.60;3.17;;;;;;;;;;5001973;28;20608;-57
2022/08/24 01:27:23;;;;;;;4.57;3.90;;;;;;;;;;5000562;28;20228;-56
2022/08/24 01:29:49;;;;;;;4.93;3.88;;;;;;;;;;5003165;28;20968;-57
2022/08/24 01:32:16;;;;;;;4.15;3.50;;;;;;;;;;5000136;28;20913;-57
2022/08/24 01:34:42;;;;;;;4.88;4.40;;;;;;;;;;4999308;28;20237;-56
2022/08/24 01:37:10;;;;;;;4.57;4.05;;;;;;;;;;5000257;28;20236;-57
2022/08/24 01:39:39;;;;;;;4.25;3.60;;;;;;;;;;5002913;28;20287;-57
2022/08/24 01:42:06;;;;;;;5.50;4.00;;;;;;;;;;4998398;28;20237;-55
2022/08/24 01:44:34;;;;;;;3.85;3.30;;;;;;;;;;4999738;28;20228;-57
2022/08/24 01:47:01;;;;;;;6.97;4.57;;;;;;;;;;4996180;28;20245;-57
2022/08/24 01:49:29;;;;;;;4.07;3.72;;;;;;;;;;4998265;28;20232;-58
2022/08/24 01:51:56;;;;;;;5.50;3.92;;;;;;;;;;4999055;28;20228;-56
2022/08/24 01:54:22;;;;;;;6.30;3.90;;;;;;;;;;5000340;28;20233;-56
2022/08/24 01:56:49;;;;;;;5.80;4.15;;;;;;;;;;4995403;28;20221;-57
2022/08/24 01:59:18;;;;;;;6.55;3.55;;;;;;;;;;5004624;28;20244;-57
2022/08/24 02:01:46;;;;;;;3.90;3.53;;;;;;;;;;4996041;28;20233;-57
2022/08/24 02:04:12;;;;;;;4.32;3.88;;;;;;;;;;4999521;28;20244;-57
2022/08/24 02:06:39;;;;;;;5.15;4.45;;;;;;;;;;4998969;28;20229;-56
2022/08/24 02:09:05;;;;;;;4.50;4.00;;;;;;;;;;5004409;28;20738;-56
2022/08/24 02:11:32;;;;;;;5.13;3.95;;;;;;;;;;5000977;28;20244;-57
2022/08/24 02:13:59;;;;;;;4.22;3.83;;;;;;;;;;5000534;28;20236;-56
2022/08/24 02:16:27;;;;;;;5.20;4.18;;;;;;;;;;4999393;28;20233;-56
2022/08/24 02:18:53;;;;;;;6.35;4.32;;;;;;;;;;5004088;28;20237;-56
2022/08/24 02:21:20;;;;;;;8.00;4.78;;;;;;;;;;5002596;28;20608;-56
2022/08/24 02:23:46;;;;;;;6.43;5.22;;;;;;;;;;5003972;28;20237;-56
2022/08/24 02:26:12;;;;;;;5.65;4.70;;;;;;;;;;5002241;28;20237;-56
2022/08/24 02:28:39;;;;;;;5.75;5.20;;;;;;;;;;5000143;28;20234;-56
2022/08/24 02:31:07;;;;;;;9.75;6.03;;;;;;;;;;4999975;28;20237;-57
2022/08/24 02:33:35;;;;;;;7.57;6.53;;;;;;;;;;5002102;28;20253;-56
2022/08/24 02:36:01;;;;;;;12.77;8.93;;;;;;;;;;5004628;28;20892;-58
2022/08/24 02:38:28;;;;;;;12.25;8.88;;;;;;;;;;5001357;28;20719;-56
2022/08/24 02:40:55;;;;;;;13.68;10.07;;;;;;;;;;5000873;28;20229;-57
2022/08/24 02:43:22;;;;;;;16.08;10.65;;;;;;;;;;5003639;28;20233;-58
2022/08/24 02:45:48;;;;;;;10.55;7.95;;;;;;;;;;5004615;28;20241;-58
2022/08/24 02:48:14;;;;;;;16.90;9.38;;;;;;;;;;5002660;28;20251;-57
2022/08/24 02:50:43;;;;;;;14.88;9.43;;;;;;;;;;4995217;28;20241;-58
2022/08/24 02:53:10;;;;;;;11.35;8.68;;;;;;;;;;4996463;28;20618;-57
2022/08/24 02:55:38;;;;;;;16.30;10.77;;;;;;;;;;4999607;28;20233;-57
2022/08/24 02:58:04;;;;;;;12.40;9.63;;;;;;;;;;5001068;28;20233;-56
2022/08/24 03:00:31;;;;;;;13.02;10.05;;;;;;;;;;5003373;28;20240;-56
2022/08/24 03:02:57;;;;;;;11.18;9.98;;;;;;;;;;5001736;28;20221;-57
2022/08/24 03:05:24;;;;;;;11.38;9.60;;;;;;;;;;4995625;28;20244;-57
2022/08/24 03:07:52;;;;;;;10.95;9.70;;;;;;;;;;4997612;28;20623;-58
2022/08/24 03:10:19;;;;;;;13.70;10.15;;;;;;;;;;5000778;28;20291;-56
2022/08/24 03:12:45;;;;;;;12.57;9.95;;;;;;;;;;4998842;28;20321;-56
2022/08/24 03:15:13;;;;;;;12.18;9.25;;;;;;;;;;5002083;28;20241;-56
2022/08/24 03:17:39;;;;;;;10.95;8.52;;;;;;;;;;5000021;28;20233;-57
2022/08/24 03:20:09;;;;;;;9.88;8.18;;;;;;;;;;5002798;28;20241;-56
2022/08/24 03:22:35;;;;;;;9.82;8.35;;;;;;;;;;4997690;28;20234;-56
2022/08/24 03:25:03;;;;;;;11.50;8.95;;;;;;;;;;5001068;28;20237;-57
2022/08/24 03:27:30;;;;;;;11.95;8.73;;;;;;;;;;4998724;28;20229;-57
2022/08/24 03:29:56;;;;;;;12.23;8.88;;;;;;;;;;4999054;28;20237;-56
2022/08/24 03:32:22;;;;;;;11.35;8.98;;;;;;;;;;5000802;28;20237;-57
2022/08/24 03:34:49;;;;;;;11.02;8.93;;;;;;;;;;4999998;28;20255;-57
2022/08/24 03:37:16;;;;;;;10.02;8.05;;;;;;;;;;4996500;28;20248;-56
2022/08/24 03:39:42;;;;;;;8.95;8.02;;;;;;;;;;4998214;28;20236;-57
2022/08/24 03:42:10;;;;;;;10.70;8.88;;;;;;;;;;4996928;28;20233;-57
2022/08/24 03:44:36;;;;;;;12.73;8.82;;;;;;;;;;5003392;28;20233;-57
2022/08/24 03:47:02;;;;;;;9.63;8.15;;;;;;;;;;4988875;28;20251;-57
2022/08/24 03:49:29;;;;;;;8.25;7.25;;;;;;;;;;5000283;28;20245;-57
2022/08/24 03:51:55;;;;;;;9.82;7.50;;;;;;;;;;5000323;28;20233;-56
2022/08/24 03:54:21;;;;;;;8.30;7.03;;;;;;;;;;5000663;28;20232;-56
2022/08/24 03:56:48;;;;;;;8.85;7.05;;;;;;;;;;4996679;28;20241;-57
2022/08/24 03:59:15;;;;;;;6.82;6.22;;;;;;;;;;4994909;28;20237;-57
2022/08/24 04:01:42;;;;;;;6.22;5.72;;;;;;;;;;5001487;28;20735;-57
2022/08/24 04:04:08;;;;;;;11.50;7.45;;;;;;;;;;4993221;28;20448;-58
2022/08/24 04:06:35;;;;;;;8.43;6.40;;;;;;;;;;5003053;28;20240;-56
2022/08/24 04:09:01;;;;;;;9.43;7.00;;;;;;;;;;4994927;28;20348;-57
2022/08/24 04:11:29;;;;;;;6.35;5.78;;;;;;;;;;5000101;28;20237;-56
2022/08/24 04:13:56;;;;;;;10.32;6.65;;;;;;;;;;5000729;28;20249;-57
2022/08/24 04:16:24;;;;;;;7.60;6.53;;;;;;;;;;4998868;28;20283;-56
2022/08/24 04:18:50;;;;;;;6.32;5.68;;;;;;;;;;5000882;28;20244;-57
2022/08/24 04:21:19;;;;;;;6.78;6.10;;;;;;;;;;5001163;28;20638;-57
2022/08/24 04:23:46;;;;;;;8.13;6.22;;;;;;;;;;5000785;28;20299;-57
2022/08/24 04:26:12;;;;;;;7.68;6.20;;;;;;;;;;4996582;28;20225;-56
2022/08/24 04:28:38;;;;;;;6.40;5.80;;;;;;;;;;5000122;28;20653;-55
2022/08/24 04:31:05;;;;;;;9.82;7.55;;;;;;;;;;4999532;28;20233;-56
2022/08/24 04:33:33;;;;;;;7.57;6.80;;;;;;;;;;4999019;28;20240;-57
2022/08/24 04:35:59;;;;;;;7.45;6.22;;;;;;;;;;4995182;28;20225;-57
2022/08/24 04:38:26;;;;;;;7.57;6.35;;;;;;;;;;5001533;28;20319;-58
2022/08/24 04:40:52;;;;;;;7.53;6.28;;;;;;;;;;4994682;28;20229;-57
2022/08/24 04:43:19;;;;;;;7.18;6.00;;;;;;;;;;5000989;28;20249;-57
2022/08/24 04:45:46;;;;;;;7.60;5.90;;;;;;;;;;4997976;28;20241;-58
2022/08/24 04:48:16;;;;;;;6.40;5.70;;;;;;;;;;5000271;28;20237;-57
2022/08/24 04:50:44;;;;;;;6.75;6.05;;;;;;;;;;4999532;28;20236;-58
2022/08/24 04:53:12;;;;;;;6.50;6.00;;;;;;;;;;4998053;28;20237;-56
2022/08/24 04:55:42;;;;;;;5.65;5.18;;;;;;;;;;4995735;28;20287;-58
2022/08/24 04:58:09;;;;;;;6.82;6.20;;;;;;;;;;5001472;28;20782;-56
2022/08/24 05:00:35;;;;;;;5.97;5.45;;;;;;;;;;4998566;28;20260;-57
2022/08/24 05:03:02;;;;;;;7.80;6.07;;;;;;;;;;5002674;28;20233;-56
2022/08/24 05:05:29;;;;;;;8.23;6.43;;;;;;;;;;4999206;28;20690;-57
2022/08/24 05:07:56;;;;;;;8.52;7.05;;;;;;;;;;4995220;28;20229;-57
2022/08/24 05:10:23;;;;;;;6.93;6.22;;;;;;;;;;4997773;28;20225;-56
2022/08/24 05:12:49;;;;;;;7.15;6.07;;;;;;;;;;4999875;28;20256;-58
2022/08/24 05:15:16;;;;;;;6.07;5.55;;;;;;;;;;5001281;28;20600;-57
2022/08/24 05:17:42;;;;;;;7.25;5.78;;;;;;;;;;5003495;28;20701;-57
2022/08/24 05:20:10;;;;;;;5.97;5.45;;;;;;;;;;5002474;28;20236;-57
2022/08/24 05:22:37;;;;;;;7.13;5.80;;;;;;;;;;5002072;28;20244;-57
2022/08/24 05:25:05;;;;;;;9.02;7.10;;;;;;;;;;5003741;28;20268;-57
2022/08/24 05:27:32;;;;;;;9.02;7.03;;;;;;;;;;4998822;28;20233;-57
2022/08/24 05:29:59;;;;;;;8.45;6.85;;;;;;;;;;4999390;28;20240;-56
2022/08/24 05:32:25;;;;;;;7.90;7.18;;;;;;;;;;4992747;28;20321;-57
2022/08/24 05:34:51;;;;;;;8.32;7.50;;;;;;;;;;4999987;28;20236;-56
2022/08/24 05:37:18;;;;;;;8.52;7.15;;;;;;;;;;4997784;28;20316;-57
2022/08/24 05:39:45;;;;;;;12.20;8.45;;;;;;;;;;4999882;28;20252;-58
2022/08/24 05:42:13;;;;;;;13.07;9.15;;;;;;;;;;5001038;28;20236;-56
2022/08/24 05:44:39;;;;;;;11.13;8.75;;;;;;;;;;5001860;28;20245;-57
2022/08/24 05:47:05;;;;;;;12.13;9.57;;;;;;;;;;5002182;28;20233;-56
2022/08/24 05:49:32;;;;;;;13.30;9.95;;;;;;;;;;5003437;28;20723;-57
2022/08/24 05:51:58;;;;;;;14.52;9.43;;;;;;;;;;5001699;28;20253;-58
2022/08/24 05:54:25;;;;;;;12.02;9.70;;;;;;;;;;5001453;28;20240;-58
2022/08/24 05:56:51;;;;;;;9.68;8.68;;;;;;;;;;5002090;28;20762;-57
2022/08/24 05:59:21;;;;;;;11.13;9.80;;;;;;;;;;5002024;28;20237;-57
2022/08/24 06:01:48;;;;;;;17.30;9.88;;;;;;;;;;5000143;28;20338;-57
2022/08/24 06:04:14;;;;;;;14.75;10.02;;;;;;;;;;5004753;28;20239;-56
2022/08/24 06:06:40;;;;;;;11.18;9.80;;;;;;;;;;4998444;28;20268;-57
2022/08/24 06:09:07;;;;;;;12.82;9.63;;;;;;;;;;5002116;28;20236;-57
2022/08/24 06:11:34;;;;;;;14.18;10.02;;;;;;;;;;5003179;28;20246;-57
2022/08/24 06:14:01;;;;;;;14.32;10.52;;;;;;;;;;5001630;28;20247;-58
2022/08/24 06:16:29;;;;;;;11.93;10.18;;;;;;;;;;4999402;28;20722;-57
2022/08/24 06:18:56;;;;;;;11.63;10.30;;;;;;;;;;5002779;28;20229;-56
2022/08/24 06:21:23;;;;;;;14.10;8.45;;;;;;;;;;4999319;28;20244;-57
2022/08/24 06:23:50;;;;;;;14.43;10.18;;;;;;;;;;5001895;28;20734;-56
2022/08/24 06:29:01;;;;;;;9.75;8.60;;;;;;;;;;5000196;28;20770;-56
2022/08/24 06:31:29;;;;;;;12.25;9.57;;;;;;;;;;4998822;28;20315;-56
2022/08/24 06:33:55;;;;;;;12.35;8.90;;;;;;;;;;5004377;28;20233;-57
2022/08/24 06:36:22;;;;;;;9.85;7.95;;;;;;;;;;5000724;28;20239;-56
2022/08/24 06:38:48;;;;;;;13.10;8.02;;;;;;;;;;5002618;28;20773;-57
2022/08/24 06:41:14;;;;;;;10.10;9.07;;;;;;;;;;4998076;28;20303;-56
2022/08/24 06:43:41;;;;;;;12.23;10.63;;;;;;;;;;4998626;28;20229;-57
2022/08/24 06:46:07;;;;;;;11.82;10.23;;;;;;;;;;5003415;28;20715;-57
2022/08/24 06:48:35;;;;;;;12.23;10.02;;;;;;;;;;5006727;28;20287;-57
2022/08/24 06:51:01;;;;;;;12.40;9.98;;;;;;;;;;5001807;28;20323;-57
2022/08/24 06:53:28;;;;;;;16.95;10.75;;;;;;;;;;5000099;28;22383;-58
2022/08/24 06:55:55;;;;;;;14.48;10.70;;;;;;;;;;4999853;28;20244;-56
2022/08/24 06:58:24;;;;;;;14.77;12.13;;;;;;;;;;5004431;28;20245;-56
2022/08/24 07:00:50;;;;;;;16.75;12.38;;;;;;;;;;4997230;28;20284;-58
2022/08/24 07:03:17;;;;;;;16.75;12.30;;;;;;;;;;5001911;28;20241;-58
2022/08/24 07:05:50;;;;;;;19.30;13.77;;;;;;;;;;4999280;28;20225;-58
2022/08/24 07:08:17;;;;;;;23.08;14.98;;;;;;;;;;4994525;28;20245;-58
2022/08/24 07:10:43;;;;;;;20.30;14.00;;;;;;;;;;4999051;28;20691;-58
2022/08/24 07:13:10;;;;;;;19.02;13.30;;;;;;;;;;5003475;28;20237;-57
2022/08/24 07:15:37;;;;;;;19.90;13.20;;;;;;;;;;4998248;28;20243;-57
2022/08/24 07:18:08;;;;;;;20.08;13.38;;;;;;;;;;5000282;28;20226;-59
2022/08/24 07:20:35;;;;;;;16.38;12.60;;;;;;;;;;5000295;28;20854;-57
2022/08/24 07:23:02;;;;;;;16.75;13.10;;;;;;;;;;5002972;28;20237;-57
2022/08/24 07:25:30;;;;;;;15.90;11.43;;;;;;;;;;5002635;28;20236;-57
2022/08/24 07:27:56;;;;;;;16.75;12.10;;;;;;;;;;4999285;28;20233;-58
2022/08/24 07:30:22;;;;;;;16.35;12.18;;;;;;;;;;4999859;28;20257;-57
2022/08/24 07:32:49;;;;;;;18.60;11.52;;;;;;;;;;5004008;28;20241;-58
2022/08/24 07:35:15;;;;;;;18.83;11.88;;;;;;;;;;5002668;28;20272;-57
2022/08/24 07:37:41;;;;;;;17.33;11.38;;;;;;;;;;4996888;28;20229;-57
2022/08/24 07:40:10;;;;;;;19.35;10.70;;;;;;;;;;5004397;28;20245;-57
2022/08/24 07:42:36;;;;;;;16.33;11.20;;;;;;;;;;5003103;28;20769;-58
2022/08/24 07:45:03;;;;;;;17.10;10.55;;;;;;;;;;5008215;28;20244;-58
2022/08/24 07:47:29;;;;;;;11.73;9.27;;;;;;;;;;5002457;28;20237;-58
2022/08/24 07:49:56;;;;;;;15.13;9.65;;;;;;;;;;5005852;28;20237;-58
2022/08/24 07:52:22;;;;;;;17.05;10.68;;;;;;;;;;4999036;28;20357;-59
2022/08/24 07:54:49;;;;;;;16.35;12.43;;;;;;;;;;5007510;28;20715;-58
2022/08/24 07:57:17;;;;;;;17.45;10.63;;;;;;;;;;5002624;28;20229;-58
2022/08/24 07:59:43;;;;;;;16.02;11.18;;;;;;;;;;5000062;28;20883;-59
2022/08/24 08:02:10;;;;;;;16.85;11.13;;;;;;;;;;5003093;28;20229;-58
2022/08/24 08:04:36;;;;;;;15.50;9.88;;;;;;;;;;4998194;28;20323;-58
2022/08/24 08:07:05;;;;;;;13.30;9.93;;;;;;;;;;5003794;28;20237;-57
2022/08/24 08:09:31;;;;;;;15.05;10.70;;;;;;;;;;4996065;28;20793;-57
2022/08/24 08:11:57;;;;;;;17.65;11.90;;;;;;;;;;4998927;28;20253;-56
2022/08/24 08:14:25;;;;;;;16.98;9.95;;;;;;;;;;4998063;28;20241;-57
2022/08/24 08:16:52;;;;;;;11.13;8.68;;;;;;;;;;4993703;28;20236;-56
2022/08/24 08:19:18;;;;;;;16.83;10.93;;;;;;;;;;5000712;28;20826;-56
2022/08/24 08:24:30;;;;;;;19.50;12.00;;;;;;;;;;5002053;28;20710;-58
2022/08/24 08:26:58;;;;;;;23.40;13.20;;;;;;;;;;5003475;28;20225;-57
2022/08/24 08:29:26;;;;;;;21.05;11.70;;;;;;;;;;5001418;28;20238;-56
2022/08/24 08:31:52;;;;;;;19.95;11.57;;;;;;;;;;5000173;28;20236;-56
2022/08/24 08:34:19;;;;;;;17.10;11.32;;;;;;;;;;4998934;28;20234;-57
2022/08/24 08:36:46;;;;;;;16.42;10.45;;;;;;;;;;5000834;28;20315;-58
2022/08/24 08:39:14;;;;;;;13.13;10.88;;;;;;;;;;5004265;28;20285;-57
2022/08/24 08:41:57;;;;;;;16.08;10.30;;;;;;;;;;5001991;28;20607;-58
2022/08/24 08:44:33;;;;;;;13.43;9.85;;;;;;;;;;5002901;28;20734;-57
2022/08/24 08:47:05;;;;;;;19.17;10.73;;;;;;;;;;5001098;28;20232;-57
2022/08/24 08:49:51;;;;;;;17.02;11.02;;;;;;;;;;5001580;28;20100;-58
2022/08/24 08:52:26;;;;;;;18.15;10.32;;;;;;;;;;4998681;28;20241;-59
2022/08/24 08:54:58;;;;;;;17.77;9.80;;;;;;;;;;4999038;28;20327;-57
2022/08/24 08:57:39;;;;;;;13.10;9.00;;;;;;;;;;4999101;28;20244;-58
2022/08/24 09:00:10;;;;;;;13.10;10.18;;;;;;;;;;4995697;28;21037;-57
2022/08/24 09:02:54;;;;;;;13.13;9.48;;;;;;;;;;5000029;28;20675;-57
2022/08/24 09:05:34;;;;;;;13.75;9.48;;;;;;;;;;4995890;28;20255;-57
2022/08/24 09:08:04;;;;;;;14.35;9.70;;;;;;;;;;4997102;28;20233;-57
2022/08/24 09:10:37;;;;;;;12.95;9.68;;;;;;;;;;5001965;28;20240;-57
2022/08/24 09:13:15;;;;;;;11.70;9.73;;;;;;;;;;4999043;28;20491;-57
2022/08/24 09:15:59;;;;;;;11.98;8.70;;;;;;;;;;5000201;28;20241;-57
2022/08/24 09:18:46;;;;;;;10.88;9.30;;;;;;;;;;4994775;28;20225;-58
2022/08/24 09:21:20;;;;;;;12.55;10.30;;;;;;;;;;4999667;28;20708;-56
2022/08/24 09:23:53;;;;;;;13.25;10.88;;;;;;;;;;5002340;28;20715;-55
2022/08/24 09:26:22;;;;;;;12.95;9.88;;;;;;;;;;4995262;28;20597;-57
2022/08/24 09:28:53;;;;;;;15.98;10.80;;;;;;;;;;4994719;28;20320;-57
2022/08/24 09:31:37;;;;;;;14.38;11.00;;;;;;;;;;5001993;28;20833;-57
2022/08/24 09:34:15;;;;;;;13.48;10.57;;;;;;;;;;4989833;28;20509;-58
2022/08/24 09:36:49;;;;;;;20.63;11.40;;;;;;;;;;4996707;28;20366;-58
2022/08/24 09:39:23;;;;;;;12.10;10.63;;;;;;;;;;4998823;28;20678;-57
2022/08/24 09:42:04;;;;;;;16.35;11.52;;;;;;;;;;4995361;28;20226;-58
2022/08/24 09:44:48;;;;;;;19.77;12.27;;;;;;;;;;4998984;28;20248;-57
2022/08/24 09:47:38;;;;;;;14.70;11.68;;;;;;;;;;4997412;28;20650;-59
2022/08/24 09:50:21;;;;;;;13.90;10.90;;;;;;;;;;4999203;28;20241;-59
2022/08/24 09:53:09;;;;;;;15.68;12.35;;;;;;;;;;4997207;28;20240;-57
2022/08/24 09:55:50;;;;;;;12.98;10.55;;;;;;;;;;4997829;28;20241;-57
2022/08/24 09:58:20;;;;;;;15.20;10.82;;;;;;;;;;4999449;28;20332;-57
2022/08/24 10:00:48;;;;;;;13.30;11.52;;;;;;;;;;4996057;28;20233;-57
2022/08/24 10:03:22;;;;;;;11.95;10.38;;;;;;;;;;5001190;28;20253;-59
2022/08/24 10:06:06;;;;;;;16.50;12.73;;;;;;;;;;4991643;28;20317;-57
2022/08/24 10:08:40;;;;;;;13.80;10.55;;;;;;;;;;4989899;28;20243;-57
2022/08/24 10:11:11;;;;;;;18.02;11.70;;;;;;;;;;4998875;28;20292;-56
2022/08/24 10:13:39;;;;;;;16.13;11.25;;;;;;;;;;4996365;28;20295;-57
2022/08/24 10:16:16;;;;;;;11.85;10.00;;;;;;;;;;4993900;28;20233;-58
2022/08/24 10:18:47;;;;;;;14.65;10.13;;;;;;;;;;4993641;28;20229;-57
2022/08/24 10:21:18;;;;;;;12.45;9.32;;;;;;;;;;4994001;28;20233;-56
2022/08/24 10:23:57;;;;;;;11.90;10.40;;;;;;;;;;4990579;28;20309;-56
2022/08/24 10:26:32;;;;;;;11.75;10.52;;;;;;;;;;4992444;28;20732;-57
2022/08/24 10:29:13;;;;;;;16.92;11.55;;;;;;;;;;4998830;28;20224;-57
2022/08/24 10:31:44;;;;;;;14.98;10.88;;;;;;;;;;4994758;28;20249;-58
2022/08/24 10:34:20;;;;;;;15.88;11.02;;;;;;;;;;4998715;28;20248;-57
2022/08/24 10:37:00;;;;;;;13.68;10.82;;;;;;;;;;4996932;28;20239;-59
2022/08/24 10:39:41;;;;;;;16.48;12.85;;;;;;;;;;5000427;28;20253;-57
2022/08/24 10:45:15;;;;;;;13.23;11.70;;;;;;;;;;5003171;28;20723;-58
2022/08/24 10:47:50;;;;;;;12.85;11.55;;;;;;;;;;5001579;28;20683;-57
2022/08/24 10:50:25;;;;;;;12.93;11.15;;;;;;;;;;5001723;28;20591;-56
2022/08/24 10:53:19;;;;;;;18.70;11.15;;;;;;;;;;5001288;28;20320;-57
2022/08/24 10:55:45;;;;;;;10.43;9.38;;;;;;;;;;4955634;28;20696;-57
2022/08/24 10:58:42;;;;;;;12.15;9.32;;;;;;;;;;5001810;28;20260;-58
2022/08/24 11:01:18;;;;;;;16.52;9.85;;;;;;;;;;4958464;28;20297;-57
2022/08/24 11:03:48;;;;;;;10.35;9.23;;;;;;;;;;4990822;28;21351;-56
2022/08/24 11:06:15;;;;;;;12.98;9.85;;;;;;;;;;4999180;28;20241;-56
2022/08/24 11:08:50;;;;;;;11.77;10.00;;;;;;;;;;4994235;28;20263;-58
2022/08/24 11:11:24;;;;;;;14.30;9.35;;;;;;;;;;5000104;28;20603;-57
2022/08/24 11:13:52;;;;;;;10.30;9.15;;;;;;;;;;4998778;28;20264;-57
2022/08/24 11:16:25;;;;;;;15.50;9.88;;;;;;;;;;5001887;28;20265;-57
2022/08/24 11:18:52;;;;;;;13.68;9.90;;;;;;;;;;5004166;28;20237;-57
2022/08/24 11:21:20;;;;;;;11.80;9.25;;;;;;;;;;5000384;28;20240;-57
2022/08/24 11:23:47;;;;;;;9.95;8.90;;;;;;;;;;4997972;28;20606;-56
2022/08/24 11:26:19;;;;;;;10.98;9.32;;;;;;;;;;5001141;28;20238;-57
2022/08/24 11:28:47;;;;;;;13.77;9.02;;;;;;;;;;5001864;28;20241;-58
2022/08/24 11:31:19;;;;;;;10.27;9.18;;;;;;;;;;5001806;28;20236;-56
2022/08/24 11:33:48;;;;;;;10.38;8.07;;;;;;;;;;5000971;28;20264;-58
2022/08/24 11:36:16;;;;;;;13.20;10.13;;;;;;;;;;5002146;28;20240;-57
2022/08/24 11:38:42;;;;;;;10.95;9.10;;;;;;;;;;5001713;28;20245;-59
2022/08/24 11:41:12;;;;;;;13.35;9.65;;;;;;;;;;5000381;28;20225;-56
2022/08/24 11:43:49;;;;;;;13.10;8.20;;;;;;;;;;5001766;28;20264;-57
2022/08/24 11:46:19;;;;;;;9.40;7.72;;;;;;;;;;4999380;28;20221;-56
2022/08/24 11:48:52;;;;;;;9.10;8.23;;;;;;;;;;4999656;28;20241;-57
2022/08/24 11:51:24;;;;;;;10.35;7.82;;;;;;;;;;5000142;28;20225;-57
2022/08/24 11:53:57;;;;;;;9.50;8.48;;;;;;;;;;4999290;28;20247;-58
2022/08/24 11:56:25;;;;;;;11.02;8.25;;;;;;;;;;5005351;28;20624;-56
2022/08/24 11:58:54;;;;;;;9.77;7.38;;;;;;;;;;4991473;28;20242;-57
2022/08/24 12:01:23;;;;;;;9.13;8.23;;;;;;;;;;4996582;28;20605;-57
2022/08/24 12:03:58;;;;;;;9.60;7.47;;;;;;;;;;4997458;28;20743;-57
2022/08/24 12:06:30;;;;;;;8.20;7.45;;;;;;;;;;4992661;28;20260;-57
2022/08/24 12:09:00;;;;;;;7.72;7.10;;;;;;;;;;4998670;28;20284;-57
2022/08/24 12:11:31;;;;;;;9.80;7.70;;;;;;;;;;5001429;28;20259;-56
2022/08/24 12:14:04;;;;;;;12.18;8.25;;;;;;;;;;4997607;28;20241;-57
2022/08/24 12:16:35;;;;;;;9.88;8.20;;;;;;;;;;4998968;28;20285;-58
2022/08/24 12:19:05;;;;;;;11.07;7.80;;;;;;;;;;4999186;28;20826;-57
2022/08/24 12:21:33;;;;;;;8.73;7.55;;;;;;;;;;5000885;28;20230;-55
2022/08/24 12:24:03;;;;;;;8.48;7.70;;;;;;;;;;5000166;28;20225;-55
2022/08/24 12:26:33;;;;;;;8.32;7.53;;;;;;;;;;4988519;28;20238;-57
2022/08/24 12:29:01;;;;;;;8.80;6.13;;;;;;;;;;4998786;28;20240;-57
2022/08/24 12:31:34;;;;;;;10.38;7.43;;;;;;;;;;4993868;28;20241;-57
2022/08/24 12:34:04;;;;;;;10.85;7.60;;;;;;;;;;5003393;28;20233;-57
2022/08/24 12:36:33;;;;;;;9.80;6.90;;;;;;;;;;5001209;28;20230;-56
2022/08/24 12:39:06;;;;;;;8.70;7.70;;;;;;;;;;4998885;28;20237;-55
2022/08/24 12:41:34;;;;;;;8.40;7.50;;;;;;;;;;5002327;28;20288;-56
2022/08/24 12:44:02;;;;;;;8.73;6.75;;;;;;;;;;5001279;28;20252;-57
2022/08/24 12:46:30;;;;;;;9.00;7.60;;;;;;;;;;4999935;28;20236;-57
2022/08/24 12:48:58;;;;;;;7.93;7.22;;;;;;;;;;5001898;28;20241;-56
2022/08/24 12:51:27;;;;;;;8.23;7.13;;;;;;;;;;5001226;28;20233;-55
2022/08/24 12:54:11;;;;;;;6.20;5.60;;;;;;;;;;5001941;28;20244;-57
2022/08/24 12:56:46;;;;;;;6.88;6.20;;;;;;;;;;4998714;28;20324;-55
2022/08/24 12:59:17;;;;;;;7.07;6.10;;;;;;;;;;4999066;28;20240;-55
2022/08/24 13:01:45;;;;;;;8.75;7.30;;;;;;;;;;5004163;28;20233;-56
2022/08/24 13:04:18;;;;;;;8.43;6.90;;;;;;;;;;5004219;28;20348;-58
2022/08/24 13:06:47;;;;;;;7.55;6.57;;;;;;;;;;5003652;28;20229;-56
2022/08/24 13:09:28;;;;;;;8.20;7.45;;;;;;;;;;5001496;28;20312;-56
2022/08/24 13:11:57;;;;;;;8.60;7.18;;;;;;;;;;4997643;28;20716;-58
2022/08/24 13:14:25;;;;;;;9.15;7.07;;;;;;;;;;5002159;28;20324;-57
2022/08/24 13:17:07;;;;;;;6.85;6.15;;;;;;;;;;4997064;28;20235;-56
2022/08/24 13:19:35;;;;;;;9.45;6.15;;;;;;;;;;4998623;28;20295;-55
2022/08/24 13:22:16;;;;;;;8.00;6.90;;;;;;;;;;5000442;28;20241;-56
2022/08/24 13:24:44;;;;;;;9.48;6.75;;;;;;;;;;4998431;28;20233;-55
2022/08/24 13:27:29;;;;;;;7.20;6.35;;;;;;;;;;5000000;28;20271;-56
2022/08/24 13:30:05;;;;;;;8.88;6.53;;;;;;;;;;4998097;28;21747;-56
2022/08/24 13:32:35;;;;;;;9.68;6.57;;;;;;;;;;4995691;28;20228;-57
2022/08/24 13:35:22;;;;;;;6.65;5.95;;;;;;;;;;4995274;28;20241;-54
2022/08/24 13:38:04;;;;;;;9.23;6.63;;;;;;;;;;4992596;28;20235;-57
2022/08/24 13:40:31;;;;;;;7.63;6.65;;;;;;;;;;4999239;28;20253;-58
2022/08/24 13:43:16;;;;;;;6.78;6.18;;;;;;;;;;4997841;28;20229;-56
2022/08/24 13:45:46;;;;;;;6.28;5.75;;;;;;;;;;4994604;28;20322;-56
2022/08/24 13:48:20;;;;;;;8.50;6.10;;;;;;;;;;4997855;28;20233;-56
2022/08/24 13:50:50;;;;;;;7.88;6.15;;;;;;;;;;4992458;28;20226;-55
2022/08/24 13:53:45;;;;;;;6.38;5.78;;;;;;;;;;5001153;28;21390;-55
2022/08/24 13:56:20;;;;;;;8.48;6.60;;;;;;;;;;4954006;28;20987;-56
2022/08/24 13:58:52;;;;;;;9.68;6.45;;;;;;;;;;4999145;28;20315;-55
2022/08/24 14:01:23;;;;;;;9.20;6.38;;;;;;;;;;4995636;28;20229;-55
2022/08/24 14:03:58;;;;;;;6.57;5.97;;;;;;;;;;4999719;28;20237;-56
2022/08/24 14:06:29;;;;;;;9.43;7.28;;;;;;;;;;4998986;28;20567;-55
2022/08/24 14:09:00;;;;;;;14.20;7.47;;;;;;;;;;4998231;28;20881;-55
2022/08/24 14:11:36;;;;;;;9.02;6.45;;;;;;;;;;5001202;28;20410;-57
2022/08/24 14:14:05;;;;;;;6.65;5.95;;;;;;;;;;4998883;28;20239;-55
2022/08/24 14:19:26;;;;;;;9.75;8.80;;;;;;;;;;5002055;28;20283;-54
2022/08/24 14:21:55;;;;;;;10.25;8.55;;;;;;;;;;4999809;28;20707;-56
2022/08/24 14:24:25;;;;;;;10.73;8.68;;;;;;;;;;5001726;28;20244;-55
2022/08/24 14:27:09;;;;;;;12.85;8.30;;;;;;;;;;5002002;28;20229;-56
2022/08/24 14:29:44;;;;;;;9.48;8.68;;;;;;;;;;4999665;28;20234;-55
2022/08/24 14:32:31;;;;;;;11.30;9.55;;;;;;;;;;4999910;28;20244;-56
2022/08/24 14:35:12;;;;;;;13.13;8.95;;;;;;;;;;4999501;28;20243;-56
2022/08/24 14:37:53;;;;;;;9.80;8.45;;;;;;;;;;4998778;28;20240;-55
2022/08/24 14:40:25;;;;;;;11.60;9.35;;;;;;;;;;5002213;28;20233;-55
2022/08/24 14:42:54;;;;;;;10.32;9.32;;;;;;;;;;5001998;28;20770;-55
2022/08/24 14:45:22;;;;;;;10.23;9.02;;;;;;;;;;4999749;28;20236;-55
2022/08/24 14:47:57;;;;;;;10.60;7.75;;;;;;;;;;5001275;28;20241;-55
2022/08/24 14:50:25;;;;;;;13.18;9.20;;;;;;;;;;5001096;28;20249;-55
2022/08/24 14:52:56;;;;;;;12.57;9.88;;;;;;;;;;5002068;28;20229;-55
2022/08/24 14:55:28;;;;;;;10.20;9.20;;;;;;;;;;5001961;28;20239;-58
2022/08/24 14:58:04;;;;;;;10.98;9.88;;;;;;;;;;5001440;28;20229;-55
2022/08/24 15:00:46;;;;;;;13.25;9.52;;;;;;;;;;5000797;28;20245;-55
2022/08/24 15:03:22;;;;;;;10.95;8.70;;;;;;;;;;5000676;28;20233;-56